sensor_id;sensor_type;location;lat;lon;timestamp;P1;durP1;ratioP1;P2;durP2;ratioP2
47289;SDS011;33197;52.524;13.444;2022-11-23T01:24:27;51.67;;;28.63;;
47289;SDS011;33197;52.524;13.444;2022-11-23T01:43:09;50.95;;;27.85;;
47289;SDS011;33197;52.524;13.444;2022-11-23T03:14:20;49.60;;;27.95;;
47289;SDS011;33197;52.524;13.444;2022-11-23T03:25:37;45.70;;;27.00;;
47289;SDS011;33197;52.524;13.444;2022-11-23T03:40:55;50.67;;;27.85;;
47289;SDS011;33197;52.524;13.444;2022-11-23T03:47:47;50.92;;;27.98;;
47289;SDS011;33197;52.524;13.444;2022-11-23T04:03:08;48.65;;;26.77;;
47289;SDS011;33197;52.524;13.444;2022-11-23T06:27:25;43.83;;;23.67;;
47289;SDS011;33197;52.524;13.444;2022-11-23T06:29:52;41.85;;;24.40;;
47289;SDS011;33197;52.524;13.444;2022-11-23T07:31:59;38.97;;;22.58;;
47289;SDS011;33197;52.524;13.444;2022-11-23T07:47:11;39.95;;;21.33;;
47289;SDS011;33197;52.524;13.444;2022-11-23T07:49:39;42.50;;;23.83;;
47289;SDS011;33197;52.524;13.444;2022-11-23T07:52:06;42.10;;;24.10;;
47289;SDS011;33197;52.524;13.444;2022-11-23T07:54:33;42.22;;;23.50;;
47289;SDS011;33197;52.524;13.444;2022-11-23T07:57:00;42.92;;;24.90;;
47289;SDS011;33197;52.524;13.444;2022-11-23T07:59:27;41.22;;;22.67;;
47289;SDS011;33197;52.524;13.444;2022-11-23T08:01:55;41.22;;;23.95;;
47289;SDS011;33197;52.524;13.444;2022-11-23T08:04:24;39.90;;;23.45;;
47289;SDS011;33197;52.524;13.444;2022-11-23T08:06:54;37.92;;;23.38;;
47289;SDS011;33197;52.524;13.444;2022-11-23T08:09:21;43.33;;;25.23;;
47289;SDS011;33197;52.524;13.444;2022-11-23T08:11:49;40.65;;;22.98;;
47289;SDS011;33197;52.524;13.444;2022-11-23T08:14:16;39.22;;;22.40;;
47289;SDS011;33197;52.524;13.444;2022-11-23T08:16:47;36.15;;;22.90;;
47289;SDS011;33197;52.524;13.444;2022-11-23T08:19:15;40.45;;;23.77;;
47289;SDS011;33197;52.524;13.444;2022-11-23T08:21:44;43.00;;;23.67;;
47289;SDS011;33197;52.524;13.444;2022-11-23T08:24:11;42.30;;;22.95;;
47289;SDS011;33197;52.524;13.444;2022-11-23T08:26:38;49.47;;;27.83;;
47289;SDS011;33197;52.524;13.444;2022-11-23T08:29:05;40.90;;;22.88;;
47289;SDS011;33197;52.524;13.444;2022-11-23T08:31:33;35.92;;;22.25;;
47289;SDS011;33197;52.524;13.444;2022-11-23T08:34:00;41.15;;;23.73;;
47289;SDS011;33197;52.524;13.444;2022-11-23T08:36:29;41.15;;;23.65;;
47289;SDS011;33197;52.524;13.444;2022-11-23T08:38:56;39.50;;;22.80;;
47289;SDS011;33197;52.524;13.444;2022-11-23T08:41:23;42.00;;;23.15;;
47289;SDS011;33197;52.524;13.444;2022-11-23T08:43:51;36.55;;;21.85;;
47289;SDS011;33197;52.524;13.444;2022-11-23T08:46:18;40.92;;;23.10;;
47289;SDS011;33197;52.524;13.444;2022-11-23T08:48:45;39.90;;;23.85;;
47289;SDS011;33197;52.524;13.444;2022-11-23T08:51:12;35.92;;;21.70;;
47289;SDS011;33197;52.524;13.444;2022-11-23T08:53:39;39.13;;;22.40;;
47289;SDS011;33197;52.524;13.444;2022-11-23T08:56:07;38.95;;;22.63;;
47289;SDS011;33197;52.524;13.444;2022-11-23T08:58:34;34.35;;;22.80;;
47289;SDS011;33197;52.524;13.444;2022-11-23T09:01:06;36.85;;;22.23;;
47289;SDS011;33197;52.524;13.444;2022-11-23T09:03:34;40.50;;;22.30;;
47289;SDS011;33197;52.524;13.444;2022-11-23T09:06:01;37.47;;;21.50;;
47289;SDS011;33197;52.524;13.444;2022-11-23T09:08:28;41.65;;;23.02;;
47289;SDS011;33197;52.524;13.444;2022-11-23T09:11:02;40.30;;;21.95;;
47289;SDS011;33197;52.524;13.444;2022-11-23T09:13:30;36.45;;;22.15;;
47289;SDS011;33197;52.524;13.444;2022-11-23T09:15:58;37.88;;;22.17;;
47289;SDS011;33197;52.524;13.444;2022-11-23T09:18:26;35.92;;;22.88;;
47289;SDS011;33197;52.524;13.444;2022-11-23T09:20:56;39.72;;;22.52;;
47289;SDS011;33197;52.524;13.444;2022-11-23T09:23:23;34.80;;;21.75;;
47289;SDS011;33197;52.524;13.444;2022-11-23T09:25:52;35.13;;;20.73;;
47289;SDS011;33197;52.524;13.444;2022-11-23T09:28:19;35.13;;;19.83;;
47289;SDS011;33197;52.524;13.444;2022-11-23T09:30:48;35.28;;;20.27;;
47289;SDS011;33197;52.524;13.444;2022-11-23T09:33:15;32.85;;;20.25;;
47289;SDS011;33197;52.524;13.444;2022-11-23T09:35:42;35.45;;;20.60;;
47289;SDS011;33197;52.524;13.444;2022-11-23T09:38:10;34.63;;;21.15;;
47289;SDS011;33197;52.524;13.444;2022-11-23T09:40:38;38.88;;;22.40;;
47289;SDS011;33197;52.524;13.444;2022-11-23T09:44:12;45.28;;;25.10;;
47289;SDS011;33197;52.524;13.444;2022-11-23T09:46:10;38.35;;;23.75;;
47289;SDS011;33197;52.524;13.444;2022-11-23T09:48:46;38.80;;;25.45;;
47289;SDS011;33197;52.524;13.444;2022-11-23T09:51:21;39.22;;;23.50;;
47289;SDS011;33197;52.524;13.444;2022-11-23T09:53:55;34.38;;;20.92;;
47289;SDS011;33197;52.524;13.444;2022-11-23T09:56:32;35.08;;;21.30;;
47289;SDS011;33197;52.524;13.444;2022-11-23T09:59:03;36.58;;;22.83;;
47289;SDS011;33197;52.524;13.444;2022-11-23T10:01:36;37.95;;;23.13;;
47289;SDS011;33197;52.524;13.444;2022-11-23T10:04:03;35.67;;;21.05;;
47289;SDS011;33197;52.524;13.444;2022-11-23T10:06:33;32.08;;;19.27;;
47289;SDS011;33197;52.524;13.444;2022-11-23T10:09:11;34.17;;;20.73;;
47289;SDS011;33197;52.524;13.444;2022-11-23T10:26:40;32.53;;;19.98;;
47289;SDS011;33197;52.524;13.444;2022-11-23T10:29:10;29.08;;;20.08;;
47289;SDS011;33197;52.524;13.444;2022-11-23T10:31:41;32.10;;;19.35;;
47289;SDS011;33197;52.524;13.444;2022-11-23T10:34:12;36.00;;;19.90;;
47289;SDS011;33197;52.524;13.444;2022-11-23T10:36:40;27.08;;;17.40;;
47289;SDS011;33197;52.524;13.444;2022-11-23T10:39:23;31.77;;;17.58;;
47289;SDS011;33197;52.524;13.444;2022-11-23T10:41:52;29.35;;;18.60;;
47289;SDS011;33197;52.524;13.444;2022-11-23T10:44:29;27.45;;;18.00;;
47289;SDS011;33197;52.524;13.444;2022-11-23T10:46:58;32.90;;;20.17;;
47289;SDS011;33197;52.524;13.444;2022-11-23T10:49:27;32.38;;;18.30;;
47289;SDS011;33197;52.524;13.444;2022-11-23T10:57:21;31.15;;;18.85;;
47289;SDS011;33197;52.524;13.444;2022-11-23T11:00:03;27.48;;;16.65;;
47289;SDS011;33197;52.524;13.444;2022-11-23T11:02:40;29.38;;;17.23;;
47289;SDS011;33197;52.524;13.444;2022-11-23T11:08:13;29.60;;;18.73;;
47289;SDS011;33197;52.524;13.444;2022-11-23T11:10:44;34.08;;;20.30;;
47289;SDS011;33197;52.524;13.444;2022-11-23T11:13:32;29.77;;;19.20;;
47289;SDS011;33197;52.524;13.444;2022-11-23T11:18:53;28.55;;;17.30;;
47289;SDS011;33197;52.524;13.444;2022-11-23T11:23:50;27.17;;;17.25;;
47289;SDS011;33197;52.524;13.444;2022-11-23T11:26:23;27.90;;;16.67;;
47289;SDS011;33197;52.524;13.444;2022-11-23T11:28:52;25.45;;;17.13;;
47289;SDS011;33197;52.524;13.444;2022-11-23T11:34:24;24.08;;;16.27;;
47289;SDS011;33197;52.524;13.444;2022-11-23T11:39:46;23.70;;;15.73;;
47289;SDS011;33197;52.524;13.444;2022-11-23T11:42:17;24.67;;;16.50;;
47289;SDS011;33197;52.524;13.444;2022-11-23T11:44:47;28.77;;;16.40;;
47289;SDS011;33197;52.524;13.444;2022-11-23T11:47:21;22.58;;;15.10;;
47289;SDS011;33197;52.524;13.444;2022-11-23T11:53:00;26.10;;;16.58;;
47289;SDS011;33197;52.524;13.444;2022-11-23T11:55:32;22.83;;;14.35;;
47289;SDS011;33197;52.524;13.444;2022-11-23T11:58:09;23.58;;;15.43;;
47289;SDS011;33197;52.524;13.444;2022-11-23T12:00:37;27.13;;;14.38;;
47289;SDS011;33197;52.524;13.444;2022-11-23T12:06:04;27.45;;;15.95;;
47289;SDS011;33197;52.524;13.444;2022-11-23T12:08:46;23.70;;;15.10;;
47289;SDS011;33197;52.524;13.444;2022-11-23T12:14:00;22.70;;;13.63;;
47289;SDS011;33197;52.524;13.444;2022-11-23T12:19:42;25.42;;;15.60;;
47289;SDS011;33197;52.524;13.444;2022-11-23T12:25:21;21.98;;;14.57;;
47289;SDS011;33197;52.524;13.444;2022-11-23T12:36:44;23.13;;;14.23;;
47289;SDS011;33197;52.524;13.444;2022-11-23T12:44:52;21.60;;;14.57;;
47289;SDS011;33197;52.524;13.444;2022-11-23T12:47:44;25.23;;;15.82;;
47289;SDS011;33197;52.524;13.444;2022-11-23T12:50:29;24.27;;;14.55;;
47289;SDS011;33197;52.524;13.444;2022-11-23T12:56:04;18.23;;;13.05;;
47289;SDS011;33197;52.524;13.444;2022-11-23T12:58:42;19.27;;;13.98;;
47289;SDS011;33197;52.524;13.444;2022-11-23T13:06:44;20.27;;;13.55;;
47289;SDS011;33197;52.524;13.444;2022-11-23T13:21:13;19.92;;;12.98;;
47289;SDS011;33197;52.524;13.444;2022-11-23T13:23:44;23.13;;;13.95;;
47289;SDS011;33197;52.524;13.444;2022-11-23T13:26:16;18.13;;;12.88;;
47289;SDS011;33197;52.524;13.444;2022-11-23T13:28:45;21.67;;;15.02;;
47289;SDS011;33197;52.524;13.444;2022-11-23T13:31:24;18.02;;;12.25;;
47289;SDS011;33197;52.524;13.444;2022-11-23T13:34:00;20.40;;;13.73;;
47289;SDS011;33197;52.524;13.444;2022-11-23T13:42:20;21.67;;;13.57;;
47289;SDS011;33197;52.524;13.444;2022-11-23T13:44:48;21.65;;;12.15;;
47289;SDS011;33197;52.524;13.444;2022-11-23T13:51:18;17.60;;;12.25;;
47289;SDS011;33197;52.524;13.444;2022-11-23T13:56:16;24.00;;;12.05;;
47289;SDS011;33197;52.524;13.444;2022-11-23T14:04:34;22.20;;;13.70;;
47289;SDS011;33197;52.524;13.444;2022-11-23T14:18:16;17.85;;;12.10;;
47289;SDS011;33197;52.524;13.444;2022-11-23T14:21:10;20.88;;;12.68;;
47289;SDS011;33197;52.524;13.444;2022-11-23T14:30:15;23.60;;;11.93;;
47289;SDS011;33197;52.524;13.444;2022-11-23T14:35:39;20.13;;;13.20;;
47289;SDS011;33197;52.524;13.444;2022-11-23T14:38:50;22.92;;;14.40;;
47289;SDS011;33197;52.524;13.444;2022-11-23T14:45:48;21.55;;;14.15;;
47289;SDS011;33197;52.524;13.444;2022-11-23T14:48:28;22.55;;;15.10;;
47289;SDS011;33197;52.524;13.444;2022-11-23T14:51:01;21.80;;;14.40;;
47289;SDS011;33197;52.524;13.444;2022-11-23T15:33:20;25.88;;;16.80;;
47289;SDS011;33197;52.524;13.444;2022-11-23T15:37:15;25.75;;;16.33;;
47289;SDS011;33197;52.524;13.444;2022-11-23T15:39:43;23.35;;;16.77;;
47289;SDS011;33197;52.524;13.444;2022-11-23T15:48:15;23.05;;;13.93;;
47289;SDS011;33197;52.524;13.444;2022-11-23T15:50:58;24.02;;;15.35;;
47289;SDS011;33197;52.524;13.444;2022-11-23T15:53:28;22.75;;;14.50;;
47289;SDS011;33197;52.524;13.444;2022-11-23T15:56:00;25.67;;;15.20;;
47289;SDS011;33197;52.524;13.444;2022-11-23T15:58:29;22.13;;;14.48;;
47289;SDS011;33197;52.524;13.444;2022-11-23T19:20:53;46.45;;;28.65;;
